createdAt,value
2023-01-09T00:02:23.678Z,29
2023-01-09T00:04:53.587Z,32
2023-01-09T00:07:23.539Z,32
2023-01-09T00:09:53.566Z,32
2023-01-09T00:12:23.509Z,31
2023-01-09T00:14:53.516Z,32
2023-01-09T00:17:23.479Z,32
2023-01-09T00:19:53.601Z,32
2023-01-09T00:22:23.347Z,28
2023-01-09T00:24:53.110Z,32
2023-01-09T00:27:22.989Z,28
2023-01-09T00:29:52.891Z,32
2023-01-09T00:32:22.977Z,28
2023-01-09T00:34:52.990Z,32
2023-01-09T00:37:22.885Z,32
2023-01-09T00:39:52.965Z,32
2023-01-09T00:42:22.810Z,32
2023-01-09T00:44:52.770Z,32
2023-01-09T00:47:22.783Z,30
2023-01-09T00:49:52.907Z,32
2023-01-09T00:52:22.947Z,32
2023-01-09T00:54:52.716Z,32
2023-01-09T00:57:22.627Z,29
2023-01-09T00:59:52.648Z,28
2023-01-09T01:02:22.838Z,28
2023-01-09T01:04:52.956Z,30
2023-01-09T01:07:22.974Z,28
2023-01-09T01:09:52.928Z,30
2023-01-09T01:12:22.926Z,30
2023-01-09T01:14:52.850Z,28
2023-01-09T01:17:22.927Z,31
2023-01-09T01:19:52.945Z,30
2023-01-09T01:22:22.818Z,30
2023-01-09T01:24:52.680Z,31
2023-01-09T01:27:22.343Z,29
2023-01-09T01:29:52.126Z,30
2023-01-09T01:32:21.918Z,32
2023-01-09T01:34:51.967Z,32
2023-01-09T01:37:21.979Z,28
2023-01-09T01:39:51.893Z,32
2023-01-09T01:42:22.004Z,32
2023-01-09T01:44:51.866Z,32
2023-01-09T01:47:21.748Z,30
2023-01-09T01:49:51.810Z,32
2023-01-09T01:52:21.814Z,32
2023-01-09T01:54:51.914Z,32
2023-01-09T01:57:21.708Z,31
2023-01-09T01:59:51.741Z,32
2023-01-09T02:02:21.926Z,28
2023-01-09T02:04:51.601Z,32
2023-01-09T02:07:21.592Z,32
2023-01-09T02:09:51.584Z,30
2023-01-09T02:12:21.519Z,31
2023-01-09T02:14:51.482Z,32
2023-01-09T02:17:21.388Z,31
2023-01-09T02:19:51.328Z,32
2023-01-09T02:22:21.291Z,32
2023-01-09T02:24:51.300Z,32
2023-01-09T02:27:21.300Z,32
2023-01-09T02:29:51.310Z,32
2023-01-09T02:32:21.231Z,32
2023-01-09T02:34:51.187Z,32
2023-01-09T02:37:21.093Z,32
2023-01-09T02:39:51.069Z,32
2023-01-09T02:42:21.163Z,34
2023-01-09T02:44:51.229Z,32
2023-01-09T02:47:21.025Z,32
2023-01-09T02:49:51.046Z,34
2023-01-09T02:52:21.104Z,32
2023-01-09T02:54:51.181Z,32
2023-01-09T02:57:21.064Z,32
2023-01-09T02:59:53.200Z,32
2023-01-09T03:02:21.047Z,32
2023-01-09T03:04:50.878Z,32
2023-01-09T03:07:20.649Z,34
2023-01-09T03:09:50.771Z,32
2023-01-09T03:12:20.641Z,32
2023-01-09T03:14:50.726Z,32
2023-01-09T03:17:20.657Z,32
2023-01-09T03:19:50.624Z,32
2023-01-09T03:22:20.640Z,36
2023-01-09T03:24:50.616Z,32
2023-01-09T03:27:20.416Z,32
2023-01-09T03:29:50.341Z,32
2023-01-09T03:32:20.400Z,32
2023-01-09T03:34:50.286Z,32
2023-01-09T03:37:20.296Z,35
2023-01-09T03:39:50.250Z,35
2023-01-09T03:42:20.222Z,32
2023-01-09T03:44:50.265Z,32
2023-01-09T03:47:20.331Z,32
2023-01-09T03:49:50.074Z,32
2023-01-09T03:52:20.043Z,32
2023-01-09T03:54:50.156Z,32
2023-01-09T03:57:19.951Z,28
2023-01-09T03:59:50.023Z,32
2023-01-09T04:02:20.001Z,32
2023-01-09T04:04:49.839Z,32
2023-01-09T04:07:19.864Z,32
2023-01-09T04:09:49.726Z,32
2023-01-09T04:12:19.599Z,32
2023-01-09T04:14:49.578Z,28
2023-01-09T04:17:19.666Z,32
2023-01-09T04:19:49.606Z,32
2023-01-09T04:22:19.581Z,32
2023-01-09T04:24:49.512Z,32
2023-01-09T04:27:19.520Z,32
2023-01-09T04:29:49.516Z,32
2023-01-09T04:32:19.329Z,32
2023-01-09T04:34:49.325Z,32
2023-01-09T04:37:19.303Z,32
2023-01-09T04:39:49.148Z,32
2023-01-09T04:42:19.117Z,32
2023-01-09T04:44:49.083Z,31
2023-01-09T04:47:19.155Z,28
2023-01-09T04:49:48.970Z,32
2023-01-09T04:52:18.915Z,32
2023-01-09T04:54:48.352Z,31
2023-01-09T04:57:17.897Z,32
2023-01-09T04:59:47.798Z,31
2023-01-09T05:02:17.753Z,32
2023-01-09T05:04:47.723Z,31
2023-01-09T05:07:17.595Z,32
2023-01-09T05:09:47.616Z,32
2023-01-09T05:12:17.584Z,28
2023-01-09T05:14:47.360Z,30
2023-01-09T05:17:17.300Z,28
2023-01-09T05:19:47.245Z,28
2023-01-09T05:22:17.392Z,28
2023-01-09T05:24:47.430Z,28
2023-01-09T05:27:17.628Z,32
2023-01-09T05:29:47.530Z,32
2023-01-09T05:32:17.514Z,28
2023-01-09T05:34:47.341Z,29
2023-01-09T05:37:17.338Z,32
2023-01-09T05:39:47.425Z,28
2023-01-09T05:42:17.416Z,32
2023-01-09T05:44:47.351Z,28
2023-01-09T05:47:17.151Z,29
2023-01-09T05:49:46.910Z,28
2023-01-09T05:52:17.051Z,31
2023-01-09T05:54:47.127Z,32
2023-01-09T05:57:17.140Z,32
2023-01-09T05:59:47.042Z,30
2023-01-09T06:02:17.217Z,28
2023-01-09T06:04:46.990Z,28
2023-01-09T06:07:20.441Z,28
2023-01-09T06:09:46.787Z,28
2023-01-09T06:12:16.782Z,32
2023-01-09T06:14:46.769Z,31
2023-01-09T06:17:16.675Z,28
2023-01-09T06:19:46.654Z,28
2023-01-09T06:22:16.685Z,29
2023-01-09T06:24:46.744Z,30
2023-01-09T06:27:16.700Z,30
2023-01-09T06:29:46.747Z,30
2023-01-09T06:32:16.789Z,32
2023-01-09T06:34:46.716Z,28
2023-01-09T06:37:16.500Z,28
2023-01-09T06:39:46.106Z,28
2023-01-09T06:42:15.990Z,30
2023-01-09T06:44:46.057Z,32
2023-01-09T06:47:16.109Z,28
2023-01-09T06:49:46.053Z,28
2023-01-09T06:52:16.002Z,28
2023-01-09T06:54:45.910Z,28
2023-01-09T06:57:16.009Z,28
2023-01-09T06:59:46.081Z,28
2023-01-09T07:02:16.198Z,28
2023-01-09T07:04:46.402Z,31
2023-01-09T07:07:17.033Z,28
2023-01-09T07:09:46.931Z,28
2023-01-09T07:12:16.847Z,28
2023-01-09T07:14:46.778Z,28
2023-01-09T07:17:16.691Z,28
2023-01-09T07:19:46.714Z,28
2023-01-09T07:22:16.712Z,28
2023-01-09T07:24:46.621Z,28
2023-01-09T07:27:16.559Z,32
2023-01-09T07:29:46.450Z,28
2023-01-09T07:32:16.328Z,25
2023-01-09T07:34:46.363Z,31
2023-01-09T07:37:16.268Z,28
2023-01-09T07:39:46.324Z,28
2023-01-09T07:42:16.347Z,32
2023-01-09T07:44:46.257Z,30
2023-01-09T07:47:16.290Z,32
2023-01-09T07:49:46.269Z,28
2023-01-09T07:52:16.358Z,28
2023-01-09T07:54:46.345Z,32
2023-01-09T07:57:16.269Z,32
2023-01-09T07:59:46.378Z,30
2023-01-09T08:02:16.767Z,28
2023-01-09T08:04:46.678Z,32
2023-01-09T08:07:16.936Z,32
2023-01-09T08:09:46.862Z,32
2023-01-09T08:12:16.982Z,28
2023-01-09T08:14:46.962Z,32
2023-01-09T08:17:16.911Z,28
2023-01-09T08:19:46.901Z,31
2023-01-09T08:22:17.213Z,32
2023-01-09T08:24:47.259Z,32
2023-01-09T08:27:17.233Z,32
2023-01-09T08:29:47.131Z,28
2023-01-09T08:32:17.124Z,32
2023-01-09T08:34:47.264Z,32
2023-01-09T08:37:17.215Z,32
2023-01-09T08:39:48.629Z,28
2023-01-09T08:42:16.920Z,28
2023-01-09T08:44:47.000Z,28
2023-01-09T08:47:16.850Z,28
2023-01-09T08:49:47.139Z,28
2023-01-09T08:52:17.665Z,28
2023-01-09T08:54:47.695Z,24
2023-01-09T08:57:17.735Z,24
2023-01-09T08:59:47.720Z,24
2023-01-09T09:02:18.478Z,24
2023-01-09T09:04:48.415Z,28
2023-01-09T09:07:18.526Z,28
2023-01-09T09:09:48.563Z,28
2023-01-09T09:12:18.525Z,28
2023-01-09T09:14:48.482Z,27
2023-01-09T09:17:18.443Z,28
2023-01-09T09:19:48.443Z,28
2023-01-09T09:22:18.431Z,26
2023-01-09T09:24:48.364Z,26
2023-01-09T09:27:19.064Z,28
2023-01-09T09:29:48.909Z,32
2023-01-09T09:32:18.934Z,24
2023-01-09T09:34:48.864Z,22
2023-01-09T09:37:18.711Z,24
2023-01-09T09:39:49.243Z,24
2023-01-09T09:42:19.093Z,24
2023-01-09T09:44:53.602Z,28
2023-01-09T09:47:19.963Z,28
2023-01-09T09:49:49.594Z,27
2023-01-09T09:52:19.155Z,27
2023-01-09T09:54:48.747Z,32
2023-01-09T09:57:18.618Z,28
2023-01-09T09:59:48.885Z,27
2023-01-09T10:02:19.501Z,24
2023-01-09T10:04:49.259Z,24
2023-01-09T10:07:19.284Z,24
2023-01-09T10:09:49.064Z,32
2023-01-09T10:12:18.817Z,28
2023-01-09T10:14:49.497Z,28
2023-01-09T10:17:19.341Z,32
2023-01-09T10:19:49.585Z,32
2023-01-09T10:22:19.302Z,32
2023-01-09T10:24:49.204Z,28
2023-01-09T10:27:19.729Z,33
2023-01-09T10:29:49.516Z,33
2023-01-09T10:32:19.905Z,32
2023-01-09T10:34:50.493Z,35
2023-01-09T10:37:20.137Z,32
2023-01-09T10:39:50.505Z,32
2023-01-09T10:42:20.135Z,32
2023-01-09T10:44:50.664Z,32
2023-01-09T10:49:50.439Z,32
2023-01-09T10:52:21.454Z,33
2023-01-09T10:54:51.456Z,32
2023-01-09T10:57:21.456Z,36
2023-01-09T10:59:51.409Z,28
2023-01-09T11:02:21.412Z,35
2023-01-09T11:04:51.465Z,32
2023-01-09T11:07:21.448Z,30
2023-01-09T11:09:52.007Z,32
2023-01-09T11:12:22.029Z,28
2023-01-09T11:14:52.680Z,32
2023-01-09T11:17:22.696Z,28
2023-01-09T11:19:52.372Z,24
2023-01-09T11:22:22.324Z,28
2023-01-09T11:24:52.905Z,24
2023-01-09T11:27:22.870Z,30
2023-01-09T11:29:53.022Z,28
2023-01-09T11:32:22.777Z,27
2023-01-09T11:34:52.855Z,27
2023-01-09T11:37:22.543Z,24
2023-01-09T11:39:52.489Z,28
2023-01-09T11:42:24.440Z,24
2023-01-09T11:44:55.041Z,24
2023-01-09T11:47:24.933Z,28
2023-01-09T11:49:55.017Z,27
2023-01-09T11:52:24.981Z,23
2023-01-09T11:54:55.585Z,28
2023-01-09T11:57:25.594Z,24
2023-01-09T11:59:56.101Z,24
2023-01-09T12:02:26.133Z,28
2023-01-09T12:04:56.018Z,28
2023-01-09T12:07:25.970Z,28
2023-01-09T12:09:55.983Z,32
2023-01-09T12:12:25.839Z,28
2023-01-09T12:14:56.415Z,32
2023-01-09T12:17:26.445Z,32
2023-01-09T12:19:56.825Z,26
2023-01-09T12:22:27.405Z,30
2023-01-09T12:24:57.245Z,30
2023-01-09T12:27:27.153Z,32
2023-01-09T12:29:57.044Z,31
2023-01-09T12:32:27.010Z,30
2023-01-09T12:34:56.970Z,28
2023-01-09T12:37:26.961Z,32
2023-01-09T12:39:56.763Z,31
2023-01-09T12:42:26.560Z,32
2023-01-09T12:44:56.631Z,32
2023-01-09T12:47:26.579Z,32
2023-01-09T12:49:56.518Z,32
2023-01-09T12:52:28.396Z,32
2023-01-09T12:54:58.331Z,36
2023-01-09T12:57:28.935Z,32
2023-01-09T12:59:58.857Z,32
2023-01-09T13:02:28.892Z,32
2023-01-09T13:04:59.484Z,32
2023-01-09T13:07:29.554Z,36
2023-01-09T13:09:59.453Z,43
2023-01-09T13:12:29.240Z,32
2023-01-09T13:14:59.361Z,32
2023-01-09T13:17:29.298Z,36
2023-01-09T13:19:59.271Z,32
2023-01-09T13:22:29.339Z,28
2023-01-09T13:24:59.796Z,32
2023-01-09T13:27:29.722Z,32
2023-01-09T13:29:59.654Z,32
2023-01-09T13:32:30.967Z,28
2023-01-09T13:35:00.961Z,30
2023-01-09T13:37:31.453Z,32
2023-01-09T13:40:01.469Z,28
2023-01-09T13:42:31.347Z,32
2023-01-09T13:45:02.029Z,28
2023-01-09T13:47:31.849Z,32
2023-01-09T13:50:01.863Z,27
2023-01-09T13:52:31.751Z,32
2023-01-09T13:55:01.768Z,28
2023-01-09T13:57:31.642Z,30
2023-01-09T14:00:01.683Z,28
2023-01-09T14:02:32.957Z,28
2023-01-09T14:05:03.590Z,32
2023-01-09T14:07:33.622Z,30
2023-01-09T14:10:04.156Z,28
2023-01-09T14:12:33.955Z,32
2023-01-09T14:15:04.671Z,28
2023-01-09T14:17:34.493Z,28
2023-01-09T14:20:05.062Z,30
2023-01-09T14:22:38.013Z,28
2023-01-09T14:25:05.471Z,32
2023-01-09T14:27:35.380Z,31
2023-01-09T14:30:05.365Z,32
2023-01-09T14:32:35.308Z,32
2023-01-09T14:35:06.049Z,28
2023-01-09T14:37:37.480Z,28
2023-01-09T14:40:06.480Z,32
2023-01-09T14:42:36.411Z,32
2023-01-09T14:45:06.341Z,32
2023-01-09T14:47:36.250Z,32
2023-01-09T14:50:06.869Z,28
2023-01-09T14:52:36.866Z,28
2023-01-09T14:55:06.778Z,32
2023-01-09T14:57:36.636Z,32
2023-01-09T15:00:06.596Z,36
2023-01-09T15:02:38.671Z,32
2023-01-09T15:05:08.626Z,32
2023-01-09T15:07:39.332Z,32
2023-01-09T15:10:09.259Z,28
2023-01-09T15:12:39.233Z,28
2023-01-09T15:15:09.927Z,29
2023-01-09T15:17:39.585Z,26
2023-01-09T15:20:10.109Z,28
2023-01-09T15:22:40.035Z,31
2023-01-09T15:25:10.543Z,28
2023-01-09T15:27:40.520Z,32
2023-01-09T15:30:10.548Z,32
2023-01-09T15:32:40.515Z,32
2023-01-09T15:35:10.359Z,40
2023-01-09T15:37:41.006Z,32
2023-01-09T15:40:10.964Z,32
2023-01-09T15:42:40.826Z,32
2023-01-09T15:45:10.936Z,31
2023-01-09T15:47:40.935Z,28
2023-01-09T15:50:12.549Z,28
2023-01-09T15:52:41.699Z,31
2023-01-09T15:55:12.418Z,33
2023-01-09T15:57:42.409Z,28
2023-01-09T16:00:12.437Z,32
2023-01-09T16:02:43.098Z,28
2023-01-09T16:05:12.962Z,28
2023-01-09T16:07:43.536Z,30
2023-01-09T16:10:13.455Z,24
2023-01-09T16:12:43.351Z,28
2023-01-09T16:15:13.295Z,28
2023-01-09T16:17:44.901Z,24
2023-01-09T16:20:16.090Z,28
2023-01-09T16:22:46.213Z,26
2023-01-09T16:25:16.014Z,24
2023-01-09T16:27:45.758Z,24
2023-01-09T16:30:15.568Z,27
2023-01-09T16:32:45.640Z,32
2023-01-09T16:35:15.665Z,28
2023-01-09T16:37:45.729Z,29
2023-01-09T16:40:15.541Z,28
2023-01-09T16:42:45.603Z,26
2023-01-09T16:45:15.668Z,24
2023-01-09T16:47:46.421Z,28
2023-01-09T16:50:17.118Z,24
2023-01-09T16:52:47.494Z,24
2023-01-09T16:55:17.689Z,28
2023-01-09T16:57:47.705Z,28
2023-01-09T17:00:18.566Z,24
2023-01-09T17:02:48.454Z,20
2023-01-09T17:05:19.230Z,24
2023-01-09T17:07:49.147Z,28
2023-01-09T17:10:19.700Z,24
2023-01-09T17:12:50.321Z,28
2023-01-09T17:15:20.302Z,28
2023-01-09T17:17:50.334Z,32
2023-01-09T17:20:20.980Z,28
2023-01-09T17:22:50.987Z,26
2023-01-09T17:25:21.088Z,28
2023-01-09T17:27:50.949Z,32
2023-01-09T17:30:21.017Z,25
2023-01-09T17:32:50.703Z,24
2023-01-09T17:35:20.553Z,32
2023-01-09T17:37:51.227Z,28
2023-01-09T17:40:21.855Z,24
2023-01-09T17:42:51.622Z,26
2023-01-09T17:45:21.451Z,28
2023-01-09T17:47:52.350Z,28
2023-01-09T17:50:22.265Z,36
2023-01-09T17:52:52.034Z,28
2023-01-09T17:55:22.729Z,28
2023-01-09T17:57:52.716Z,28
2023-01-09T18:00:22.706Z,28
2023-01-09T18:02:53.408Z,28
2023-01-09T18:05:23.336Z,28
2023-01-09T18:07:54.539Z,24
2023-01-09T18:10:24.541Z,28
2023-01-09T18:12:55.104Z,28
2023-01-09T18:15:25.057Z,28
2023-01-09T18:17:55.561Z,28
2023-01-09T18:20:25.443Z,28
2023-01-09T18:22:55.774Z,28
2023-01-09T18:25:25.596Z,28
2023-01-09T18:27:56.369Z,28
2023-01-09T18:30:27.078Z,27
2023-01-09T18:32:57.047Z,28
2023-01-09T18:35:26.852Z,24
2023-01-09T18:37:58.420Z,24
2023-01-09T18:40:28.181Z,26
2023-01-09T18:42:58.290Z,28
2023-01-09T18:45:28.182Z,24
2023-01-09T18:47:58.151Z,28
2023-01-09T18:50:28.201Z,28
2023-01-09T18:52:58.202Z,28
2023-01-09T18:55:28.747Z,31
2023-01-09T18:57:58.621Z,31
2023-01-09T19:00:28.565Z,24
2023-01-09T19:02:58.538Z,28
2023-01-09T19:05:28.400Z,28
2023-01-09T19:07:59.917Z,28
2023-01-09T19:10:32.304Z,24
2023-01-09T19:13:02.162Z,28
2023-01-09T19:15:32.404Z,24
2023-01-09T19:18:06.834Z,27
2023-01-09T19:20:40.540Z,28
2023-01-09T19:25:44.108Z,24
2023-01-09T19:28:16.875Z,24
2023-01-09T19:30:46.792Z,28
2023-01-09T19:33:16.609Z,24
2023-01-09T19:35:46.574Z,24
2023-01-09T19:38:16.165Z,24
2023-01-09T19:40:46.231Z,24
2023-01-09T19:43:16.147Z,26
2023-01-09T19:45:46.620Z,24
2023-01-09T19:48:16.506Z,24
2023-01-09T19:50:46.180Z,24
2023-01-09T19:53:16.131Z,24
2023-01-09T19:55:46.114Z,24
2023-01-09T19:58:15.891Z,26
2023-01-09T20:00:46.280Z,24
2023-01-09T20:03:16.683Z,24
2023-01-09T20:05:46.407Z,24
2023-01-09T20:08:16.152Z,24
2023-01-09T20:10:45.900Z,24
2023-01-09T20:13:15.796Z,24
2023-01-09T20:15:45.824Z,24
2023-01-09T20:18:15.880Z,24
2023-01-09T20:20:47.294Z,24
2023-01-09T20:23:17.280Z,24
2023-01-09T20:25:47.118Z,24
2023-01-09T20:28:16.889Z,20
2023-01-09T20:30:46.674Z,24
2023-01-09T20:33:16.565Z,28
2023-01-09T20:35:47.984Z,24
2023-01-09T20:38:17.946Z,24
2023-01-09T20:40:51.452Z,24
2023-01-09T20:43:21.177Z,23
2023-01-09T20:45:51.346Z,24
2023-01-09T20:48:21.178Z,24
2023-01-09T20:50:51.144Z,24
2023-01-09T20:53:21.038Z,24
2023-01-09T20:55:51.636Z,24
2023-01-09T20:58:28.674Z,24
2023-01-09T21:00:57.895Z,23
2023-01-09T21:03:27.711Z,24
2023-01-09T21:05:57.502Z,24
2023-01-09T21:08:27.466Z,24
2023-01-09T21:10:57.908Z,20
2023-01-09T21:13:27.972Z,24
2023-01-09T21:15:58.218Z,24
2023-01-09T21:18:28.077Z,20
2023-01-09T21:20:57.975Z,20
2023-01-09T21:23:27.990Z,24
2023-01-09T21:25:58.072Z,24
2023-01-09T21:28:28.067Z,21
2023-01-09T21:30:58.119Z,22
2023-01-09T21:33:28.238Z,20
2023-01-09T21:35:57.984Z,24
2023-01-09T21:38:28.044Z,20
2023-01-09T21:40:57.983Z,20
2023-01-09T21:43:29.323Z,22
2023-01-09T21:45:59.901Z,20
2023-01-09T21:48:29.885Z,22
2023-01-09T21:51:00.672Z,18
2023-01-09T21:53:30.665Z,24
2023-01-09T21:56:01.282Z,20
2023-01-09T21:58:31.034Z,20
2023-01-09T22:01:01.762Z,20
2023-01-09T22:03:31.728Z,22
2023-01-09T22:06:07.831Z,24
2023-01-09T22:08:37.546Z,24
2023-01-09T22:11:07.576Z,24
2023-01-09T22:13:38.142Z,20
2023-01-09T22:16:08.634Z,24
2023-01-09T22:18:40.762Z,20
2023-01-09T22:21:11.381Z,20
2023-01-09T22:23:47.807Z,20
2023-01-09T22:26:17.597Z,20
2023-01-09T22:28:47.757Z,22
2023-01-09T22:31:17.521Z,22
2023-01-09T22:33:47.554Z,16
2023-01-09T22:36:18.215Z,18
2023-01-09T22:38:48.231Z,20
2023-01-09T22:41:18.766Z,23
2023-01-09T22:43:48.682Z,22
2023-01-09T22:46:19.512Z,20
2023-01-09T22:48:49.245Z,20
2023-01-09T22:51:19.766Z,18
2023-01-09T22:53:49.795Z,20
2023-01-09T22:56:19.764Z,20
2023-01-09T22:58:49.761Z,20
2023-01-09T23:01:19.742Z,20
2023-01-09T23:03:50.151Z,24
2023-01-09T23:06:20.058Z,22
2023-01-09T23:08:50.042Z,20
2023-01-09T23:11:20.672Z,20
2023-01-09T23:13:50.620Z,20
2023-01-09T23:16:21.292Z,22
2023-01-09T23:18:51.266Z,24
2023-01-09T23:21:21.317Z,21
2023-01-09T23:23:51.307Z,24
2023-01-09T23:26:21.457Z,24
2023-01-09T23:28:51.488Z,24
2023-01-09T23:31:21.478Z,20
2023-01-09T23:33:51.503Z,24
2023-01-09T23:38:56.277Z,24
2023-01-09T23:41:26.230Z,23
2023-01-09T23:43:56.372Z,16
2023-01-09T23:46:33.790Z,20
2023-01-09T23:49:03.635Z,20
2023-01-09T23:51:33.698Z,24
2023-01-09T23:54:03.579Z,20
2023-01-09T23:56:33.510Z,18
2023-01-09T23:59:03.323Z,20
